Detall de PIREP

Printer-friendly versionPDF version

[2013/03/05 10:46:00]
Flight IATA:CT3232
Pilot Number:042
Company ICAO:CAT
Aircraft Type:C750/F
PAX:4
Departing Airport: LEPA
Destination Airport: LEMD
Alternate Airport:LEMG
Online: VATSIM
Route:EPAMA UN733 PRADO
Flight Level:F300
No Slew and time accel
No pause
Crash detect
Detect pilot in Cockpit between each 30 and 45 minutes
10:46 Zero fuel Weight: 22921 Lbs, Fuel Weight: 12971 Lbs
10:46 VATSIM:LEPA 051030Z 13010KT 100V160 CAVOK 19/11 Q1000 NOSIG
10:46 VATSIM:LEMD 051030Z 13005KT 080V160 9999 FEW012 BKN050 11/10 Q0997 R88/19//95 TEMPO RA
10:46 VOICE CATALONIAN
10:58 Parking Brakes off
11:00 UTC Jump: added 1 Hour to Log
11:00 UTC Jump: removed 1 Hour from Log
11:08 Take-off
11:08 Take off Weight: 35701 Lbs
11:08 Wind: 232º @ 008 Knots Heading: 237º
11:08 POS N39º 33´ 11´´ E002º 43´ 26´´
11:08 Gear Up: 161 Knots
11:08 Flaps:3 at 161 Knots
11:08 Flaps:2 at 169 Knots
11:09 Flaps:0 at 174 Knots
11:18 TOC
11:18 Fuel Weight: 12300 Lb
11:19 TOD
11:19 Fuel Weight: 12263 Lb
11:19 TOC
11:19 Fuel Weight: 12262 Lb
11:19 TOD
11:19 Fuel Weight: 12246 Lb
11:19 TOC
11:19 Fuel Weight: 12245 Lb
11:20 TOD
11:20 Fuel Weight: 12235 Lb
11:20 TOC
11:20 Fuel Weight: 12233 Lb
11:20 TOD
11:20 Fuel Weight: 12214 Lb
11:20 TOC
11:20 Fuel Weight: 12210 Lb
11:21 TOD
11:21 Fuel Weight: 12200 Lb
11:21 TOC
11:21 Fuel Weight: 12201 Lb
11:22 TOD
11:22 Fuel Weight: 12164 Lb
11:22 TOC
11:22 Fuel Weight: 12161 Lb
11:22 TOD
11:22 Fuel Weight: 12141 Lb
11:22 TOC
11:22 Fuel Weight: 12140 Lb
11:24 TOD
11:24 Fuel Weight: 12126 Lb
11:24 TOC
11:24 Fuel Weight: 12122 Lb
11:24 TOD
11:24 Fuel Weight: 12103 Lb
11:24 TOC
11:24 Fuel Weight: 12102 Lb
11:25 TOD
11:25 Fuel Weight: 12088 Lb
11:25 TOC
11:25 Fuel Weight: 12086 Lb
11:25 TOD
11:25 Fuel Weight: 12066 Lb
11:26 TOC
11:26 Fuel Weight: 12063 Lb
11:26 TOD
11:26 Fuel Weight: 12051 Lb
11:26 TOC
11:26 Fuel Weight: 12048 Lb
11:27 TOD
11:27 Fuel Weight: 12028 Lb
11:27 TOC
11:27 Fuel Weight: 12027 Lb
11:27 TOD
11:27 Fuel Weight: 12013 Lb
11:27 TOC
11:27 Fuel Weight: 12012 Lb
11:28 TOD
11:28 Fuel Weight: 11991 Lb
11:28 TOC
11:28 Fuel Weight: 11988 Lb
11:29 TOD
11:29 Fuel Weight: 11954 Lb
11:29 TOC
11:29 Fuel Weight: 11952 Lb
11:30 TOD
11:30 Fuel Weight: 11918 Lb
11:30 TOC
11:30 Fuel Weight: 11916 Lb
11:31 TOD
11:31 Fuel Weight: 11880 Lb
11:31 TOC
11:31 Fuel Weight: 11877 Lb
11:33 TOD
11:33 Fuel Weight: 11804 Lb
11:33 TOC
11:33 Fuel Weight: 11803 Lb
11:34 TOD
11:34 Fuel Weight: 11766 Lb
11:34 TOC
11:34 Fuel Weight: 11764 Lb
11:35 TOD
11:35 Fuel Weight: 11728 Lb
11:35 TOC
11:35 Fuel Weight: 11725 Lb
11:36 TOD
11:36 Fuel Weight: 11690 Lb
11:36 TOC
11:36 Fuel Weight: 11688 Lb
11:37 TOD
11:37 Fuel Weight: 11652 Lb
11:37 TOC
11:37 Fuel Weight: 11650 Lb
11:37 TOD
11:37 Fuel Weight: 11635 Lb
11:38 TOC
11:38 Fuel Weight: 11631 Lb
11:38 TOD
11:38 Fuel Weight: 11616 Lb
11:38 TOC
11:38 Fuel Weight: 11614 Lb
11:38 TOD
11:38 Fuel Weight: 11600 Lb
11:38 TOC
11:38 Fuel Weight: 11598 Lb
11:39 TOD
11:39 Fuel Weight: 11582 Lb
11:39 TOC
11:39 Fuel Weight: 11579 Lb
11:39 TOD
11:39 Fuel Weight: 11566 Lb
11:39 TOC
11:39 Fuel Weight: 11565 Lb
11:40 TOD
11:40 Fuel Weight: 11548 Lb
11:40 TOC
11:40 Fuel Weight: 11545 Lb
11:40 TOD
11:40 Fuel Weight: 11533 Lb
11:40 TOC
11:40 Fuel Weight: 11532 Lb
11:41 TOD
11:41 Fuel Weight: 11515 Lb
11:41 TOC
11:41 Fuel Weight: 11512 Lb
11:41 TOD
11:41 Fuel Weight: 11499 Lb
11:41 TOC
11:41 Fuel Weight: 11498 Lb
11:42 TOD
11:42 Fuel Weight: 11481 Lb
11:42 TOC
11:42 Fuel Weight: 11479 Lb
11:42 TOD
11:42 Fuel Weight: 11466 Lb
11:42 TOC
11:42 Fuel Weight: 11465 Lb
11:42 TOD
11:42 Fuel Weight: 11464 Lb
11:43 TOC
11:43 Fuel Weight: 11462 Lb
11:43 TOD
11:43 Fuel Weight: 11446 Lb
11:43 TOC
11:43 Fuel Weight: 11442 Lb
11:44 TOD
11:44 Fuel Weight: 11430 Lb
11:44 TOC
11:44 Fuel Weight: 11426 Lb
11:44 TOD
11:44 Fuel Weight: 11412 Lb
11:44 TOC
11:44 Fuel Weight: 11410 Lb
11:45 TOD
11:45 Fuel Weight: 11398 Lb
12:02 Flaps:2 at 161 Knots
12:03 Flaps:3 at 157 Knots
12:03 Flaps:4 at 157 Knots
12:03 Gear Down: 156 Knots
12:04 Flaps:5 at 140 Knots
12:07 TouchDown:Rate -239 ft/min Speed: 103 Knots
12:07 VATSIM:LEMD 051200Z 16005KT 070V220 9999 SCT016 BKN025 13/10 Q0997 R88/19//95 NOSIG
12:07 Land
12:07 Wind:244º@014 Knots
12:07 Heading: 181º
12:07 Flight Duration: 00:59
12:07 Landing Weight: 340 11481 Lb
11:42 TOC
11:42 Fuel Weight: 11479 Lb
11:42 TOD
11:42 Fuel Weight: 11466 Lb
11:42 TOC
11:42 Fuel Weight: 11465 Lb
11:42 TOD
11:42 Fuel Weight: 11464 Lb
11:43 TOC
11:43 Fuel Weight: 11462 Lb
11:43 TOD
11:43 Fuel Weight: 11446 Lb
11:43 TOC
11:43 Fuel Weight: 11442 Lb
11:44 TOD
11:44 Fuel Weight: 11430 Lb
11:44 TOC
11:44 Fuel Weight: 11426 Lb
11:44 TOD
11:44 Fuel Weight: 11412 Lb
11:44 TOC
11:44 Fuel Weight: 11410 Lb
11:45 TOD
11:45 Fuel Weight: 11398 Lb
12:02 Flaps:2 at 161 Knots
12:03 Flaps:3 at 157 Knots
12:03 Flaps:4 at 157 Knots
12:03 Gear Down: 156 Knots
12:04 Flaps:5 at 140 Knots
12:07 TouchDown:Rate -239 ft/min Speed: 103 Knots
12:07 VATSIM:LEMD 051200Z 16005KT 070V220 9999 SCT016 BKN025 13/10 Q0997 R88/19//95 NOSIG
12:07 Land
12:07 Wind:244º@014 Knots
12:07 Heading: 181º
12:07 Flight Duration: 00:59
12:07 Landing Weight: 34087 Lbs
12:07 POS N40º 30´ 21´´ W003º 34´ 29´´
12:24 Parking brakes on
12:24 Block to Block Duration: 01:26
12:24 Final Fuel: 10994 Lbls
12:24 Spent Fuel: 1977 Lbls
12:24 Flight Length: 84 NM
12:24 TOD Land Length: 00 NM

Exportar CSV

Powered by Drupal - Modified by Danger4k